createdAt,value
2023-03-23T00:00:14.259Z,1018.92
2023-03-23T00:01:15.649Z,1018.94
2023-03-23T00:02:17.272Z,1018.93
2023-03-23T00:03:18.670Z,1018.93
2023-03-23T00:04:20.297Z,1018.86
2023-03-23T00:05:22.682Z,1018.86
2023-03-23T00:06:24.927Z,1018.85
2023-03-23T00:07:27.123Z,1018.82
2023-03-23T00:08:28.511Z,1018.79
2023-03-23T00:09:29.931Z,1018.77
2023-03-23T00:10:31.310Z,1018.84
2023-03-23T00:11:32.808Z,1018.83
2023-03-23T00:12:34.206Z,1018.81
2023-03-23T00:13:36.531Z,1018.74
2023-03-23T00:14:38.781Z,1018.76
2023-03-23T00:15:41.284Z,1018.74
2023-03-23T00:16:43.674Z,1018.73
2023-03-23T00:17:45.874Z,1018.71
2023-03-23T00:18:48.102Z,1018.73
2023-03-23T00:19:50.527Z,1018.62
2023-03-23T00:20:52.770Z,1018.62
2023-03-23T00:21:54.169Z,1018.61
2023-03-23T00:22:56.371Z,1018.60
2023-03-23T00:23:57.819Z,1018.59
2023-03-23T00:25:00.128Z,1018.68
2023-03-23T00:26:02.460Z,1018.68
2023-03-23T00:27:04.308Z,1018.64
2023-03-23T00:28:06.605Z,1018.66
2023-03-23T00:29:08.202Z,1018.66
2023-03-23T00:30:09.593Z,1018.66
2023-03-23T00:31:11.786Z,1018.66
2023-03-23T00:32:14.081Z,1018.63
2023-03-23T00:33:16.324Z,1018.58
2023-03-23T00:34:18.524Z,1018.61
2023-03-23T00:35:20.759Z,1018.51
2023-03-23T00:36:22.997Z,1018.54
2023-03-23T00:37:25.196Z,1018.53
2023-03-23T00:38:28.069Z,1018.56
2023-03-23T00:39:29.526Z,1018.54
2023-03-23T00:40:31.732Z,1018.53
2023-03-23T00:41:33.131Z,1018.51
2023-03-23T00:42:35.321Z,1018.47
2023-03-23T00:43:36.719Z,1018.50
2023-03-23T00:44:38.962Z,1018.53
2023-03-23T00:45:40.771Z,1018.51
2023-03-23T00:46:42.402Z,1018.39
2023-03-23T00:47:44.595Z,1018.48
2023-03-23T00:48:46.255Z,1018.42
2023-03-23T00:49:48.449Z,1018.32
2023-03-23T00:50:50.109Z,1018.33
2023-03-23T00:51:52.349Z,1018.28
2023-03-23T00:52:53.997Z,1018.22
2023-03-23T00:53:55.446Z,1018.17
2023-03-23T00:54:57.770Z,1018.24
2023-03-23T00:55:59.971Z,1018.24
2023-03-23T00:57:01.375Z,1018.17
2023-03-23T00:58:03.590Z,1018.08
2023-03-23T00:59:05.024Z,1018.14
2023-03-23T01:00:07.560Z,1018.12
2023-03-23T01:01:09.137Z,1018.05
2023-03-23T01:02:11.441Z,1018.06
2023-03-23T01:03:12.875Z,1018.05
2023-03-23T01:04:14.383Z,1018.02
2023-03-23T01:05:16.916Z,1018.00
2023-03-23T01:06:18.292Z,1018.05
2023-03-23T01:07:19.724Z,1017.97
2023-03-23T01:08:22.149Z,1018.07
2023-03-23T01:09:24.508Z,1018.04
2023-03-23T01:10:26.067Z,1017.88
2023-03-23T01:11:28.363Z,1017.89
2023-03-23T01:12:29.831Z,1017.87
2023-03-23T01:13:31.291Z,1017.95
2023-03-23T01:14:33.542Z,1017.96
2023-03-23T01:15:34.934Z,1017.94
2023-03-23T01:16:37.155Z,1017.94
2023-03-23T01:17:39.335Z,1017.94
2023-03-23T01:18:41.659Z,1017.93
2023-03-23T01:19:43.147Z,1017.95
2023-03-23T01:20:45.396Z,1017.95
2023-03-23T01:21:46.785Z,1017.95
2023-03-23T01:22:48.988Z,1017.93
2023-03-23T01:23:50.391Z,1017.88
2023-03-23T01:24:52.630Z,1017.89
2023-03-23T01:25:54.249Z,1017.91
2023-03-23T01:26:56.570Z,1017.87
2023-03-23T01:27:57.962Z,1017.87
2023-03-23T01:29:00.237Z,1017.91
2023-03-23T01:30:01.627Z,1017.80
2023-03-23T01:31:03.070Z,1017.78
2023-03-23T01:32:06.302Z,1017.79
2023-03-23T01:33:07.769Z,1017.82
2023-03-23T01:34:09.258Z,1017.72
2023-03-23T01:35:11.513Z,1017.74
2023-03-23T01:36:13.142Z,1017.69
2023-03-23T01:37:15.390Z,1017.68
2023-03-23T01:38:16.784Z,1017.65
2023-03-23T01:39:19.034Z,1017.64
2023-03-23T01:40:21.243Z,1017.65
2023-03-23T01:41:22.634Z,1017.64
2023-03-23T01:42:24.827Z,1017.64
2023-03-23T01:43:26.229Z,1017.62
2023-03-23T01:44:28.479Z,1017.60
2023-03-23T01:45:29.870Z,1017.63
2023-03-23T01:46:31.265Z,1017.60
2023-03-23T01:47:32.772Z,1017.54
2023-03-23T01:48:34.183Z,1017.62
2023-03-23T01:49:36.439Z,1017.59
2023-03-23T01:50:37.823Z,1017.64
2023-03-23T01:51:42.013Z,1017.66
2023-03-23T01:52:42.409Z,1017.62
2023-03-23T01:53:44.679Z,1017.61
2023-03-23T01:54:46.065Z,1017.66
2023-03-23T01:55:48.374Z,1017.60
2023-03-23T01:56:50.696Z,1017.59
2023-03-23T01:57:52.949Z,1017.59
2023-03-23T01:58:54.345Z,1017.60
2023-03-23T01:59:55.748Z,1017.57
2023-03-23T02:00:57.988Z,1017.58
2023-03-23T02:01:59.397Z,1017.65
2023-03-23T02:03:00.954Z,1017.61
2023-03-23T02:04:02.359Z,1017.57
2023-03-23T02:05:04.595Z,1017.57
2023-03-23T02:06:06.788Z,1017.61
2023-03-23T02:07:08.289Z,1017.56
2023-03-23T02:08:10.482Z,1017.53
2023-03-23T02:09:12.670Z,1017.54
2023-03-23T02:10:14.068Z,1017.59
2023-03-23T02:11:22.036Z,1017.54
2023-03-23T02:12:19.002Z,1017.54
2023-03-23T02:13:21.290Z,1017.47
2023-03-23T02:14:23.488Z,1017.52
2023-03-23T02:15:24.889Z,1017.45
2023-03-23T02:16:27.271Z,1017.47
2023-03-23T02:17:28.928Z,1017.49
2023-03-23T02:18:31.171Z,1017.43
2023-03-23T02:19:33.645Z,1017.43
2023-03-23T02:20:35.146Z,1017.39
2023-03-23T02:21:37.389Z,1017.44
2023-03-23T02:22:39.738Z,1017.48
2023-03-23T02:23:41.940Z,1017.45
2023-03-23T02:24:43.340Z,1017.39
2023-03-23T02:25:44.749Z,1017.39
2023-03-23T02:26:46.145Z,1017.48
2023-03-23T02:27:48.340Z,1017.42
2023-03-23T02:28:50.865Z,1017.50
2023-03-23T02:29:53.117Z,1017.35
2023-03-23T02:30:55.311Z,1017.42
2023-03-23T02:31:56.702Z,1017.44
2023-03-23T02:32:58.316Z,1017.40
2023-03-23T02:34:00.572Z,1017.28
2023-03-23T02:35:01.961Z,1017.30
2023-03-23T02:36:04.263Z,1017.26
2023-03-23T02:37:05.666Z,1017.23
2023-03-23T02:38:07.997Z,1017.29
2023-03-23T02:39:10.373Z,1017.23
2023-03-23T02:40:12.849Z,1017.14
2023-03-23T02:41:14.608Z,1017.20
2023-03-23T03:02:08.147Z,1016.93
2023-03-23T03:03:09.848Z,1016.94
2023-03-23T03:04:11.289Z,1016.89
2023-03-23T03:05:12.737Z,1016.91
2023-03-23T03:06:14.216Z,1016.95
2023-03-23T03:07:15.711Z,1016.91
2023-03-23T03:08:17.248Z,1016.81
2023-03-23T03:09:19.143Z,1016.80
2023-03-23T03:10:20.591Z,1016.80
2023-03-23T03:11:22.122Z,1016.75
2023-03-23T03:12:23.639Z,1016.72
2023-03-23T03:13:25.039Z,1016.73
2023-03-23T03:14:26.530Z,1016.73
2023-03-23T03:15:28.114Z,1016.70
2023-03-23T03:16:29.566Z,1016.73
2023-03-23T03:17:31.319Z,1016.74
2023-03-23T03:18:32.720Z,1016.72
2023-03-23T03:19:34.121Z,1016.73
2023-03-23T03:20:35.637Z,1016.67
2023-03-23T03:21:37.697Z,1016.61
2023-03-23T03:22:39.216Z,1016.66
2023-03-23T03:23:40.616Z,1016.69
2023-03-23T03:24:42.010Z,1016.66
2023-03-23T03:25:43.609Z,1016.67
2023-03-23T03:26:45.155Z,1016.60
2023-03-23T03:27:46.556Z,1016.64
2023-03-23T03:28:48.171Z,1016.66
2023-03-23T03:29:49.574Z,1016.60
2023-03-23T03:30:50.966Z,1016.60
2023-03-23T03:31:52.416Z,1016.56
2023-03-23T03:32:53.814Z,1016.62
2023-03-23T03:33:55.257Z,1016.63
2023-03-23T03:34:56.988Z,1016.65
2023-03-23T03:35:58.406Z,1016.64
2023-03-23T03:36:59.797Z,1016.67
2023-03-23T03:38:01.188Z,1016.59
2023-03-23T03:39:02.581Z,1016.55
2023-03-23T03:40:03.983Z,1016.55
2023-03-23T03:41:05.449Z,1016.44
2023-03-23T03:42:07.002Z,1016.48
2023-03-23T03:43:08.402Z,1016.39
2023-03-23T03:44:09.866Z,1016.48
2023-03-23T03:45:11.267Z,1016.52
2023-03-23T03:46:13.657Z,1016.47
2023-03-23T03:47:15.047Z,1016.48
2023-03-23T03:48:16.850Z,1016.53
2023-03-23T03:49:18.241Z,1016.56
2023-03-23T03:50:19.646Z,1016.57
2023-03-23T03:51:21.104Z,1016.48
2023-03-23T03:52:22.499Z,1016.48
2023-03-23T03:53:28.711Z,1016.44
2023-03-23T03:54:26.278Z,1016.48
2023-03-23T03:55:27.677Z,1016.52
2023-03-23T03:56:29.070Z,1016.56
2023-03-23T03:57:31.462Z,1016.56
2023-03-23T03:58:32.852Z,1016.55
2023-03-23T03:59:34.693Z,1016.52
2023-03-23T04:00:36.086Z,1016.55
2023-03-23T04:02:38.023Z,1016.56
2023-03-23T04:03:39.413Z,1016.56
2023-03-23T04:04:41.043Z,1016.50
2023-03-23T04:05:42.662Z,1016.48
2023-03-23T04:06:44.314Z,1016.45
2023-03-23T04:07:45.713Z,1016.53
2023-03-23T04:08:47.104Z,1016.55
2023-03-23T04:09:49.499Z,1016.61
2023-03-23T04:10:50.912Z,1016.59
2023-03-23T04:11:52.600Z,1016.58
2023-03-23T04:12:54.042Z,1016.59
2023-03-23T04:13:55.556Z,1016.64
2023-03-23T04:14:57.067Z,1016.62
2023-03-23T04:16:10.142Z,1016.68
2023-03-23T04:17:01.886Z,1016.67
2023-03-23T04:18:03.885Z,1016.64
2023-03-23T04:19:05.290Z,1016.69
2023-03-23T04:20:06.677Z,1016.64
2023-03-23T04:21:08.066Z,1016.54
2023-03-23T04:22:09.459Z,1016.57
2023-03-23T04:23:10.858Z,1016.57
2023-03-23T04:24:23.115Z,1016.54
2023-03-23T04:25:15.677Z,1016.61
2023-03-23T04:26:17.851Z,1016.66
2023-03-23T04:27:19.876Z,1016.68
2023-03-23T04:28:21.277Z,1016.67
2023-03-23T04:29:22.675Z,1016.62
2023-03-23T04:30:24.088Z,1016.58
2023-03-23T04:31:25.570Z,1016.60
2023-03-23T04:32:27.740Z,1016.58
2023-03-23T04:33:59.652Z,1016.53
2023-03-23T04:34:32.778Z,1016.60
2023-03-23T04:35:34.198Z,1016.58
2023-03-23T04:36:57.113Z,1016.54
2023-03-23T04:37:38.317Z,1016.51
2023-03-23T04:38:39.776Z,1016.54
2023-03-23T04:39:41.174Z,1016.50
2023-03-23T04:40:42.573Z,1016.48
2023-03-23T04:41:43.965Z,1016.46
2023-03-23T04:42:45.364Z,1016.37
2023-03-23T04:43:46.761Z,1016.44
2023-03-23T04:44:48.216Z,1016.41
2023-03-23T04:45:49.617Z,1016.39
2023-03-23T04:46:51.015Z,1016.44
2023-03-23T04:47:52.578Z,1016.43
2023-03-23T04:48:53.955Z,1016.49
2023-03-23T04:49:55.347Z,1016.40
2023-03-23T04:50:56.744Z,1016.44
2023-03-23T04:51:58.146Z,1016.44
2023-03-23T04:53:00.540Z,1016.46
2023-03-23T04:54:02.011Z,1016.40
2023-03-23T04:55:03.474Z,1016.41
2023-03-23T04:56:04.938Z,1016.48
2023-03-23T04:57:06.328Z,1016.55
2023-03-23T04:58:07.772Z,1016.52
2023-03-23T04:59:09.165Z,1016.44
2023-03-23T05:00:10.562Z,1016.54
2023-03-23T05:01:11.957Z,1016.49
2023-03-23T05:02:14.757Z,1016.55
2023-03-23T05:03:16.037Z,1016.48
2023-03-23T05:04:17.438Z,1016.54
2023-03-23T05:05:18.832Z,1016.54
2023-03-23T05:06:20.230Z,1016.50
2023-03-23T05:07:21.698Z,1016.48
2023-03-23T05:08:23.089Z,1016.48
2023-03-23T05:09:24.483Z,1016.41
2023-03-23T05:10:25.876Z,1016.41
2023-03-23T05:11:27.265Z,1016.41
2023-03-23T05:12:28.657Z,1016.44
2023-03-23T05:13:30.126Z,1016.42
2023-03-23T05:14:31.581Z,1016.46
2023-03-23T05:15:33.964Z,1016.47
2023-03-23T05:16:35.364Z,1016.43
2023-03-23T05:17:36.764Z,1016.44
2023-03-23T05:18:38.164Z,1016.45
2023-03-23T05:19:39.554Z,1016.43
2023-03-23T05:20:40.996Z,1016.41
2023-03-23T05:21:42.493Z,1016.27
2023-03-23T05:22:43.880Z,1016.29
2023-03-23T05:23:45.275Z,1016.34
2023-03-23T05:24:46.674Z,1016.26
2023-03-23T05:25:48.066Z,1016.34
2023-03-23T05:26:49.467Z,1016.33
2023-03-23T05:27:50.869Z,1016.27
2023-03-23T05:28:52.308Z,1016.27
2023-03-23T05:29:53.925Z,1016.22
2023-03-23T05:30:55.325Z,1016.28
2023-03-23T05:31:56.725Z,1016.28
2023-03-23T05:32:58.117Z,1016.24
2023-03-23T05:33:59.511Z,1016.26
2023-03-23T05:35:00.913Z,1016.26
2023-03-23T05:36:02.436Z,1016.22
2023-03-23T05:37:03.833Z,1016.27
2023-03-23T05:38:05.375Z,1016.18
2023-03-23T05:39:06.777Z,1016.22
2023-03-23T05:40:08.197Z,1016.24
2023-03-23T05:41:09.637Z,1016.19
2023-03-23T05:42:11.028Z,1016.21
2023-03-23T05:43:12.443Z,1016.20
2023-03-23T05:44:13.833Z,1016.24
2023-03-23T05:45:15.254Z,1016.31
2023-03-23T05:46:16.677Z,1016.26
2023-03-23T05:47:18.080Z,1016.40
2023-03-23T05:48:19.482Z,1016.31
2023-03-23T05:49:20.861Z,1016.42
2023-03-23T05:50:22.254Z,1016.42
2023-03-23T05:51:23.645Z,1016.39
2023-03-23T05:52:25.036Z,1016.41
2023-03-23T05:53:26.444Z,1016.35
2023-03-23T05:54:27.838Z,1016.42
2023-03-23T05:55:29.227Z,1016.44
2023-03-23T05:56:30.687Z,1016.46
2023-03-23T05:57:32.085Z,1016.46
2023-03-23T05:58:33.472Z,1016.45
2023-03-23T05:59:34.931Z,1016.44
2023-03-23T06:00:37.313Z,1016.45
2023-03-23T06:01:38.738Z,1016.40
2023-03-23T06:02:40.133Z,1016.47
2023-03-23T06:03:41.536Z,1016.41
2023-03-23T06:04:42.958Z,1016.45
2023-03-23T06:05:44.362Z,1016.43
2023-03-23T06:06:45.761Z,1016.45
2023-03-23T06:07:47.313Z,1016.42
2023-03-23T06:08:48.712Z,1016.49
2023-03-23T06:09:50.105Z,1016.49
2023-03-23T06:10:51.495Z,1016.46
2023-03-23T06:11:52.887Z,1016.49
2023-03-23T06:12:54.287Z,1016.42
2023-03-23T06:13:55.682Z,1016.40
2023-03-23T06:14:57.100Z,1016.41
2023-03-23T06:15:58.503Z,1016.45
2023-03-23T06:16:59.900Z,1016.42
2023-03-23T06:18:01.300Z,1016.40
2023-03-23T06:19:02.689Z,1016.42
2023-03-23T06:20:04.086Z,1016.44
2023-03-23T06:21:05.560Z,1016.37
2023-03-23T06:22:07.920Z,1016.44
2023-03-23T06:23:09.315Z,1016.42
2023-03-23T06:24:10.750Z,1016.42
2023-03-23T06:25:12.140Z,1016.42
2023-03-23T06:26:13.582Z,1016.35
2023-03-23T06:27:16.983Z,1016.30
2023-03-23T06:28:17.436Z,1016.35
2023-03-23T06:29:18.846Z,1016.32
2023-03-23T06:30:21.092Z,1016.36
2023-03-23T06:31:23.273Z,1016.41
2023-03-23T06:32:24.724Z,1016.44
2023-03-23T06:33:26.175Z,1016.37
2023-03-23T06:34:27.617Z,1016.48
2023-03-23T06:35:29.066Z,1016.43
2023-03-23T06:36:30.466Z,1016.41
2023-03-23T06:37:31.851Z,1016.44
2023-03-23T06:38:33.338Z,1016.51
2023-03-23T06:39:34.714Z,1016.55
2023-03-23T06:40:36.115Z,1016.48
2023-03-23T06:41:37.609Z,1016.50
2023-03-23T06:42:39.000Z,1016.49
2023-03-23T06:43:40.393Z,1016.47
2023-03-23T06:44:41.786Z,1016.46
2023-03-23T06:45:43.361Z,1016.67
2023-03-23T06:47:46.819Z,1016.64
2023-03-23T06:48:48.212Z,1016.63
2023-03-23T06:49:49.614Z,1016.55
2023-03-23T06:50:51.081Z,1016.55
2023-03-23T06:51:52.489Z,1016.52
2023-03-23T06:52:53.869Z,1016.46
2023-03-23T06:53:55.262Z,1016.52
2023-03-23T06:54:56.652Z,1016.51
2023-03-23T06:55:58.043Z,1016.55
2023-03-23T06:56:59.455Z,1016.55
2023-03-23T06:58:00.841Z,1016.63
2023-03-23T06:59:02.240Z,1016.57
2023-03-23T07:00:03.639Z,1016.55
2023-03-23T07:01:05.049Z,1016.44
2023-03-23T07:02:06.516Z,1016.42
2023-03-23T07:03:07.908Z,1016.41
2023-03-23T07:04:09.305Z,1016.43
2023-03-23T07:05:10.706Z,1016.46
2023-03-23T07:06:12.097Z,1016.38
2023-03-23T07:07:13.497Z,1016.43
2023-03-23T07:08:14.897Z,1016.39
2023-03-23T07:09:16.301Z,1016.46
2023-03-23T07:10:17.765Z,1016.40
2023-03-23T07:11:19.223Z,1016.40
2023-03-23T07:12:20.624Z,1016.44
2023-03-23T07:13:22.019Z,1016.40
2023-03-23T07:14:23.407Z,1016.41
2023-03-23T07:15:24.802Z,1016.46
2023-03-23T07:16:26.194Z,1016.54
2023-03-23T07:17:27.587Z,1016.62
2023-03-23T07:18:28.980Z,1016.67
2023-03-23T07:19:30.396Z,1016.77
2023-03-23T07:20:31.761Z,1016.80
2023-03-23T07:21:33.160Z,1016.74
2023-03-23T07:22:34.568Z,1016.74
2023-03-23T07:23:35.952Z,1016.56
2023-03-23T07:24:37.365Z,1016.50
2023-03-23T07:25:38.737Z,1016.46
2023-03-23T07:26:40.148Z,1016.51
2023-03-23T07:27:41.540Z,1016.42
2023-03-23T07:28:42.931Z,1016.31
2023-03-23T07:29:44.325Z,1016.26
2023-03-23T07:30:45.716Z,1016.22
2023-03-23T07:31:47.116Z,1016.20
2023-03-23T07:32:48.566Z,1016.22
2023-03-23T07:33:50.016Z,1016.18
2023-03-23T07:34:51.653Z,1016.23
2023-03-23T07:35:53.084Z,1016.20
2023-03-23T07:36:54.470Z,1016.22
2023-03-23T07:37:55.861Z,1016.22
2023-03-23T07:38:58.245Z,1016.28
2023-03-23T07:39:59.637Z,1016.25
2023-03-23T07:41:01.039Z,1016.27
2023-03-23T07:42:02.490Z,1016.38
2023-03-23T07:43:03.888Z,1016.35
2023-03-23T07:44:05.348Z,1016.35
2023-03-23T07:45:06.744Z,1016.42
2023-03-23T07:46:08.193Z,1016.51
2023-03-23T07:47:09.584Z,1016.57
2023-03-23T07:48:20.970Z,1016.62
2023-03-23T07:49:13.360Z,1016.62
2023-03-23T07:50:14.762Z,1016.63
2023-03-23T07:51:16.208Z,1016.53
2023-03-23T07:52:17.673Z,1016.48
2023-03-23T07:53:19.068Z,1016.45
2023-03-23T07:54:20.515Z,1016.50
2023-03-23T07:55:21.918Z,1016.55
2023-03-23T07:56:23.337Z,1016.60
2023-03-23T07:57:24.707Z,1016.62
2023-03-23T07:58:26.100Z,1016.63
2023-03-23T07:59:27.498Z,1016.53
2023-03-23T08:00:28.890Z,1016.55
2023-03-23T08:01:30.355Z,1016.54
2023-03-23T08:02:31.734Z,1016.52
2023-03-23T08:03:34.927Z,1016.58
2023-03-23T08:04:36.314Z,1016.54
2023-03-23T08:05:37.772Z,1016.64
2023-03-23T08:06:39.172Z,1016.63
2023-03-23T08:07:40.558Z,1016.65
2023-03-23T08:08:41.957Z,1016.56
2023-03-23T08:09:43.357Z,1016.61
2023-03-23T08:10:44.757Z,1016.45
2023-03-23T08:11:47.149Z,1016.42
2023-03-23T08:12:48.549Z,1016.47
2023-03-23T08:13:49.981Z,1016.48
2023-03-23T08:14:51.380Z,1016.60
2023-03-23T08:15:52.786Z,1016.69
2023-03-23T08:16:54.396Z,1016.74
2023-03-23T08:17:55.791Z,1016.71
2023-03-23T08:18:57.327Z,1016.74
2023-03-23T08:19:59.569Z,1016.80
2023-03-23T08:21:01.185Z,1016.77
2023-03-23T08:22:02.578Z,1016.83
2023-03-23T08:23:04.771Z,1016.85
2023-03-23T08:24:06.231Z,1016.76
2023-03-23T08:25:07.623Z,1016.82
2023-03-23T08:26:09.015Z,1016.97
2023-03-23T08:27:10.412Z,1016.95
2023-03-23T08:28:11.806Z,1016.96
2023-03-23T08:29:13.198Z,1017.05
2023-03-23T08:30:14.610Z,1017.04
2023-03-23T08:31:16.000Z,1017.15
2023-03-23T08:32:17.447Z,1017.13
2023-03-23T08:33:18.851Z,1017.12
2023-03-23T08:34:21.094Z,1017.18
2023-03-23T08:35:22.488Z,1017.21
2023-03-23T08:36:23.878Z,1017.18
2023-03-23T08:37:25.277Z,1017.15
2023-03-23T08:38:26.687Z,1017.16
2023-03-23T08:39:28.181Z,1017.05
2023-03-23T08:40:29.565Z,1017.02
2023-03-23T08:41:30.965Z,1016.98
2023-03-23T08:42:32.409Z,1017.00
2023-03-23T08:43:33.808Z,1017.03
2023-03-23T08:44:35.199Z,1017.04
2023-03-23T08:45:36.591Z,1017.01
2023-03-23T08:46:37.986Z,1016.98
2023-03-23T08:47:39.384Z,1016.88
2023-03-23T08:48:40.835Z,1016.86
2023-03-23T08:49:42.227Z,1016.91
2023-03-23T08:50:43.623Z,1016.86
2023-03-23T08:51:45.021Z,1016.98
2023-03-23T08:52:46.416Z,1016.91
2023-03-23T08:53:47.857Z,1016.91
2023-03-23T08:54:49.257Z,1016.82
2023-03-23T08:55:50.653Z,1016.80
2023-03-23T08:56:52.053Z,1016.93
2023-03-23T08:57:53.452Z,1016.87
2023-03-23T08:58:54.895Z,1016.86
2023-03-23T08:59:56.295Z,1017.03
2023-03-23T09:00:57.695Z,1016.83
2023-03-23T09:01:59.094Z,1016.85
2023-03-23T09:03:00.496Z,1016.82
2023-03-23T09:04:01.896Z,1016.76
2023-03-23T09:05:03.355Z,1016.83
2023-03-23T09:06:04.754Z,1016.82
2023-03-23T09:07:06.235Z,1016.82
2023-03-23T09:08:07.633Z,1016.76
2023-03-23T09:09:09.883Z,1016.80
2023-03-23T09:10:11.283Z,1016.87
2023-03-23T09:11:13.473Z,1016.79
2023-03-23T09:12:14.875Z,1016.73
2023-03-23T09:13:16.277Z,1016.82
2023-03-23T09:14:17.672Z,1016.78
2023-03-23T09:15:23.894Z,1016.89
2023-03-23T09:16:21.450Z,1016.92
2023-03-23T09:17:22.842Z,1016.87
2023-03-23T09:18:24.240Z,1016.85
2023-03-23T09:19:25.632Z,1016.91
2023-03-23T09:20:27.030Z,1016.91
2023-03-23T09:21:28.487Z,1016.90
2023-03-23T09:22:29.885Z,1016.94
2023-03-23T09:23:31.274Z,1016.91
2023-03-23T09:24:32.666Z,1016.90
2023-03-23T09:25:34.063Z,1016.91
2023-03-23T09:26:35.449Z,1016.85
2023-03-23T09:27:36.840Z,1016.89
2023-03-23T09:28:38.240Z,1016.85
2023-03-23T09:29:39.635Z,1016.85
2023-03-23T09:30:52.861Z,1016.86
2023-03-23T09:31:43.435Z,1016.92
2023-03-23T09:32:44.819Z,1016.96
2023-03-23T09:33:47.017Z,1016.85
2023-03-23T09:34:48.599Z,1016.85
2023-03-23T09:35:50.016Z,1016.92
2023-03-23T09:36:51.396Z,1016.99
2023-03-23T09:37:52.859Z,1016.99
2023-03-23T09:38:54.300Z,1016.97
2023-03-23T09:39:55.693Z,1016.89
2023-03-23T09:40:58.087Z,1016.95
2023-03-23T09:41:59.485Z,1017.00
2023-03-23T09:43:00.881Z,1016.99
2023-03-23T09:44:02.280Z,1017.07
2023-03-23T09:45:04.537Z,1017.10
2023-03-23T09:46:05.921Z,1017.19
2023-03-23T09:47:07.321Z,1017.16
2023-03-23T09:48:08.844Z,1017.20
2023-03-23T09:49:10.236Z,1017.24
2023-03-23T09:50:11.632Z,1017.28
2023-03-23T09:51:13.022Z,1017.27
2023-03-23T09:52:14.421Z,1017.25
2023-03-23T09:53:15.822Z,1017.30
2023-03-23T09:54:17.221Z,1017.24
2023-03-23T09:55:18.624Z,1017.35
2023-03-23T09:56:20.099Z,1017.43
2023-03-23T09:57:21.492Z,1017.34
2023-03-23T09:58:22.956Z,1017.26
2023-03-23T09:59:24.347Z,1017.32
2023-03-23T10:00:25.748Z,1017.38
2023-03-23T10:01:27.141Z,1017.40
2023-03-23T10:02:29.337Z,1017.57
2023-03-23T10:03:30.729Z,1017.57
2023-03-23T10:04:32.129Z,1017.54
2023-03-23T10:05:33.532Z,1017.51
2023-03-23T10:06:35.148Z,1017.57
2023-03-23T10:07:36.528Z,1017.56
2023-03-23T10:08:41.044Z,1017.61
2023-03-23T10:09:40.303Z,1017.63
2023-03-23T10:10:41.695Z,1017.56
2023-03-23T10:11:43.245Z,1017.62
2023-03-23T10:12:44.646Z,1017.57
2023-03-23T10:13:46.045Z,1017.69
2023-03-23T10:14:47.446Z,1017.83
2023-03-23T10:15:48.845Z,1017.76
2023-03-23T10:16:50.239Z,1017.77
2023-03-23T10:17:51.652Z,1017.77
2023-03-23T10:18:53.077Z,1017.69
2023-03-23T10:19:54.530Z,1017.83
2023-03-23T10:20:56.046Z,1017.89
2023-03-23T10:21:57.508Z,1017.91
2023-03-23T10:22:58.906Z,1017.96
2023-03-23T10:24:00.304Z,1018.01
2023-03-23T10:25:01.697Z,1018.04
2023-03-23T10:26:03.090Z,1018.01
2023-03-23T10:27:04.552Z,1018.05
2023-03-23T10:28:06.014Z,1017.96
2023-03-23T10:29:07.413Z,1018.02
2023-03-23T10:30:08.809Z,1017.99
2023-03-23T10:31:10.204Z,1018.02
2023-03-23T10:32:11.593Z,1017.90
2023-03-23T10:33:12.986Z,1018.01
2023-03-23T10:34:14.391Z,1017.90
2023-03-23T10:35:15.855Z,1018.01
2023-03-23T10:36:17.285Z,1017.99
2023-03-23T10:37:18.708Z,1017.98
2023-03-23T10:38:20.099Z,1018.03
2023-03-23T10:39:21.654Z,1018.03
2023-03-23T10:40:23.859Z,1018.01
2023-03-23T10:41:26.423Z,1018.10
2023-03-23T10:42:27.678Z,1017.98
2023-03-23T10:43:29.076Z,1017.92
2023-03-23T10:44:30.469Z,1017.85
2023-03-23T10:45:31.867Z,1017.87
2023-03-23T10:46:36.878Z,1017.84
2023-03-23T10:47:35.655Z,1017.80
2023-03-23T10:48:37.047Z,1017.89
2023-03-23T10:49:38.442Z,1017.86
2023-03-23T10:50:39.843Z,1017.81
2023-03-23T10:51:41.284Z,1017.82
2023-03-23T10:52:42.705Z,1017.84
2023-03-23T10:53:44.103Z,1017.85
2023-03-23T10:54:45.495Z,1017.85
2023-03-23T10:55:46.888Z,1017.91
2023-03-23T10:56:58.803Z,1017.85
2023-03-23T10:57:50.669Z,1017.80
2023-03-23T10:58:52.061Z,1017.78
2023-03-23T10:59:53.460Z,1017.76
2023-03-23T11:00:54.880Z,1017.68
2023-03-23T11:01:56.288Z,1017.64
2023-03-23T11:02:57.685Z,1017.76
2023-03-23T11:03:59.079Z,1017.69
2023-03-23T11:05:05.177Z,1017.68
2023-03-23T11:06:03.714Z,1017.81
2023-03-23T11:07:05.165Z,1017.84
2023-03-23T11:08:06.564Z,1017.78
2023-03-23T11:09:08.810Z,1017.88
2023-03-23T11:10:10.208Z,1017.73
2023-03-23T11:11:11.606Z,1017.62
2023-03-23T11:12:13.008Z,1017.65
2023-03-23T11:13:14.409Z,1017.58
2023-03-23T11:14:15.852Z,1017.65
2023-03-23T11:15:17.392Z,1017.72
2023-03-23T11:16:18.791Z,1017.80
2023-03-23T11:17:20.202Z,1017.80
2023-03-23T11:18:21.669Z,1017.65
2023-03-23T11:19:23.055Z,1017.71
2023-03-23T11:20:24.460Z,1017.80
2023-03-23T11:21:25.846Z,1017.83
2023-03-23T11:22:27.245Z,1017.98
2023-03-23T11:23:28.635Z,1017.97
2023-03-23T11:24:30.039Z,1017.91
2023-03-23T11:25:31.503Z,1017.85
2023-03-23T11:26:32.889Z,1017.86
2023-03-23T11:27:34.289Z,1017.86
2023-03-23T11:28:35.688Z,1017.83
2023-03-23T11:29:37.258Z,1018.01
2023-03-23T11:30:38.635Z,1017.97
2023-03-23T11:31:40.047Z,1017.89
2023-03-23T11:32:41.434Z,1017.85
2023-03-23T11:33:43.244Z,1017.92
2023-03-23T11:34:44.643Z,1017.95
2023-03-23T11:35:46.098Z,1018.05
2023-03-23T11:36:47.492Z,1018.09
2023-03-23T11:37:48.954Z,1018.09
2023-03-23T11:38:50.356Z,1018.02
2023-03-23T11:39:51.752Z,1017.99
2023-03-23T11:40:53.148Z,1017.92
2023-03-23T11:42:06.873Z,1017.83
2023-03-23T11:42:56.942Z,1017.87
2023-03-23T11:43:58.324Z,1017.90
2023-03-23T11:44:59.723Z,1017.80
2023-03-23T11:46:01.285Z,1017.84
2023-03-23T11:47:02.672Z,1017.81
2023-03-23T11:48:04.064Z,1017.78
2023-03-23T11:49:15.593Z,1017.64
2023-03-23T11:50:07.857Z,1017.71
2023-03-23T11:51:09.247Z,1017.83
2023-03-23T11:52:10.703Z,1017.87
2023-03-23T11:53:12.093Z,1017.99
2023-03-23T11:54:13.485Z,1018.02
2023-03-23T11:55:14.945Z,1018.06
2023-03-23T11:56:16.385Z,1018.03
2023-03-23T11:57:17.799Z,1018.04
2023-03-23T11:58:19.181Z,1017.99
2023-03-23T11:59:20.577Z,1017.99
2023-03-23T12:00:21.978Z,1018.01
2023-03-23T12:01:23.390Z,1018.06
2023-03-23T12:02:24.782Z,1018.03
2023-03-23T12:03:26.175Z,1018.01
2023-03-23T12:04:27.581Z,1018.04
2023-03-23T12:05:28.972Z,1018.04
2023-03-23T12:06:31.216Z,1018.09
2023-03-23T12:07:32.615Z,1018.09
2023-03-23T12:08:34.010Z,1018.00
2023-03-23T12:09:35.486Z,1018.09
2023-03-23T12:10:45.968Z,1018.08
2023-03-23T12:11:39.168Z,1018.02
2023-03-23T12:12:40.631Z,1018.02
2023-03-23T12:13:44.465Z,1017.97
2023-03-23T12:14:44.418Z,1017.96
2023-03-23T12:15:45.811Z,1017.94
2023-03-23T12:16:47.211Z,1018.01
2023-03-23T12:17:48.603Z,1018.07
2023-03-23T12:18:50.013Z,1018.06
2023-03-23T12:19:51.563Z,1017.97
2023-03-23T12:20:52.945Z,1017.94
2023-03-23T12:21:54.412Z,1017.93
2023-03-23T12:22:55.854Z,1017.86
2023-03-23T12:23:59.445Z,1017.97
2023-03-23T12:24:59.632Z,1017.94
2023-03-23T12:26:01.036Z,1017.84
2023-03-23T12:27:02.434Z,1017.81
2023-03-23T12:28:03.826Z,1017.76
2023-03-23T12:29:05.219Z,1017.70
2023-03-23T12:30:06.623Z,1017.70
2023-03-23T12:31:08.172Z,1017.61
2023-03-23T12:32:09.746Z,1017.62
2023-03-23T12:33:11.146Z,1017.59
2023-03-23T12:34:12.597Z,1017.52
2023-03-23T12:35:13.996Z,1017.67
2023-03-23T12:36:15.490Z,1017.59
2023-03-23T12:37:16.906Z,1017.74
2023-03-23T12:38:19.169Z,1017.73
2023-03-23T12:39:20.555Z,1017.89
2023-03-23T12:40:21.950Z,1017.92
2023-03-23T12:41:23.352Z,1017.97
2023-03-23T12:42:24.748Z,1017.93
2023-03-23T12:43:26.150Z,1017.84
2023-03-23T12:44:27.538Z,1017.86
2023-03-23T12:45:28.933Z,1017.80
2023-03-23T12:46:30.328Z,1017.80